MMCU/CUU METAR and TAF weather

Enter ICAO airport designator
Station Type Date Time Source
MMCU METAR 2022/05/24 02:40 UTC NOAA

MMCU 240240Z 11005KT 10SM FEW040 SCT080 26/04 A2986 RMK SLP007 52003 991 8/460 ISOL CI


Station Type Date Time Source
MMCU Decoded METAR 2022/05/24 02:40 UTC NOAA

Chihuahua International Airport, Mexico (MMCU) 28-42N 105-58W
May 23, 2022 - 10:40 PM EDT / 2022.05.24 0240 UTC
Wind: from the ESE (110 degrees) at 6 MPH (5 KT):0
Visibility: 10 mile(s):0
Sky conditions: partly cloudy
Temperature: 78 F (26 C)
Dew Point: 39 F (4 C)
Relative Humidity: 24%
Pressure (altimeter): 29.86 in. Hg (1011 hPa)
Pressure tendency: 0.01 inches (0.3 hPa) higher than three hours ago
ob: MMCU 240240Z 11005KT 10SM FEW040 SCT080 26/04 A2986 RMK SLP007 52003 991 8/460 ISOL CI
cycle: 2

Station Type Date Time Source
MMCU TAF 2022/05/24 06:15 UTC NOAA

TAF MMCU 240406Z 2406/2506 11005KT P6SM SCT040 SCT080
FM241800 28012KT P6SM BKN030 BKN080 BKN250
FM250500 27005KT P6SM SCT030 SCT080

Example: see airport list